createdAt,value
2018-07-14T00:00:21.302Z,-81.00
2018-07-14T00:01:22.076Z,-81.00
2018-07-14T00:02:22.846Z,-81.00
2018-07-14T00:03:23.621Z,-82.00
2018-07-14T00:04:24.390Z,-83.00
2018-07-14T00:05:25.197Z,-83.00
2018-07-14T00:06:25.962Z,-84.00
2018-07-14T00:07:26.734Z,-82.00
2018-07-14T00:08:27.509Z,-80.00
2018-07-14T00:09:28.282Z,-81.00
2018-07-14T00:10:29.083Z,-82.00
2018-07-14T00:11:30.212Z,-82.00
2018-07-14T00:16:27.505Z,-82.00
2018-07-14T00:17:28.275Z,-81.00
2018-07-14T00:18:29.046Z,-80.00
2018-07-14T00:19:29.816Z,-81.00
2018-07-14T00:20:30.587Z,-83.00
2018-07-14T00:21:31.382Z,-81.00
2018-07-14T00:22:32.153Z,-83.00
2018-07-14T00:23:32.924Z,-82.00
2018-07-14T00:24:33.696Z,-84.00
2018-07-14T00:25:34.465Z,-84.00
2018-07-14T00:26:35.263Z,-82.00
2018-07-14T00:27:36.034Z,-83.00
2018-07-14T00:28:36.803Z,-81.00
2018-07-14T00:29:37.572Z,-82.00
2018-07-14T00:30:38.341Z,-81.00
2018-07-14T00:31:39.141Z,-81.00
2018-07-14T00:32:39.912Z,-83.00
2018-07-14T00:33:40.686Z,-81.00
2018-07-14T00:34:41.457Z,-81.00
2018-07-14T00:35:42.232Z,-81.00
2018-07-14T00:36:43.025Z,-82.00
2018-07-14T00:37:43.797Z,-83.00
2018-07-14T00:38:44.567Z,-81.00
2018-07-14T00:39:45.339Z,-83.00
2018-07-14T00:40:46.108Z,-81.00
2018-07-14T00:41:46.904Z,-81.00
2018-07-14T00:42:47.677Z,-83.00
2018-07-14T00:43:48.447Z,-81.00
2018-07-14T00:44:49.221Z,-82.00
2018-07-14T00:45:49.991Z,-82.00
2018-07-14T00:46:50.787Z,-81.00
2018-07-14T00:47:51.558Z,-81.00
2018-07-14T00:48:52.336Z,-81.00
2018-07-14T00:49:53.101Z,-82.00
2018-07-14T00:50:53.878Z,-82.00
2018-07-14T00:51:54.667Z,-82.00
2018-07-14T00:52:55.438Z,-82.00
2018-07-14T00:53:56.212Z,-82.00
2018-07-14T00:54:56.987Z,-81.00
2018-07-14T00:55:57.756Z,-81.00
2018-07-14T00:56:58.557Z,-83.00
2018-07-14T00:57:59.327Z,-83.00
2018-07-14T00:59:00.100Z,-83.00
2018-07-14T01:00:00.867Z,-82.00
2018-07-14T01:01:01.641Z,-83.00
2018-07-14T01:02:02.467Z,-84.00
2018-07-14T01:03:02.210Z,-83.00
2018-07-14T01:04:03.984Z,-83.00
2018-07-14T01:05:04.757Z,-82.00
2018-07-14T01:06:05.525Z,-84.00
2018-07-14T01:07:06.328Z,-82.00
2018-07-14T01:08:07.099Z,-82.00
2018-07-14T01:09:07.872Z,-82.00
2018-07-14T01:10:08.643Z,-82.00
2018-07-14T01:11:09.438Z,-82.00
2018-07-14T01:12:10.213Z,-82.00
2018-07-14T01:13:10.982Z,-84.00
2018-07-14T01:14:11.759Z,-83.00
2018-07-14T01:15:12.530Z,-82.00
2018-07-14T01:16:13.298Z,-82.00
2018-07-14T01:17:14.103Z,-82.00
2018-07-14T01:18:14.875Z,-82.00
2018-07-14T01:19:15.649Z,-83.00
2018-07-14T01:20:16.419Z,-83.00
2018-07-14T01:21:17.188Z,-83.00
2018-07-14T01:22:17.986Z,-82.00
2018-07-14T01:23:18.757Z,-82.00
2018-07-14T01:24:19.526Z,-82.00
2018-07-14T01:25:20.297Z,-81.00
2018-07-14T01:26:21.070Z,-82.00
2018-07-14T01:27:21.863Z,-81.00
2018-07-14T01:28:22.638Z,-79.00
2018-07-14T01:29:23.408Z,-81.00
2018-07-14T01:30:24.176Z,-81.00
2018-07-14T01:31:24.947Z,-81.00
2018-07-14T01:32:25.745Z,-81.00
2018-07-14T01:33:26.529Z,-81.00
2018-07-14T01:34:27.292Z,-80.00
2018-07-14T01:35:28.067Z,-81.00
2018-07-14T01:36:28.834Z,-81.00
2018-07-14T01:37:29.633Z,-81.00
2018-07-14T01:38:30.401Z,-82.00
2018-07-14T01:39:31.174Z,-81.00
2018-07-14T01:40:32.088Z,-81.00
2018-07-14T01:41:31.728Z,-82.00
2018-07-14T01:42:33.528Z,-81.00
2018-07-14T01:43:34.300Z,-83.00
2018-07-14T01:44:34.073Z,-83.00
2018-07-14T01:45:35.908Z,-82.00
2018-07-14T01:46:36.844Z,-82.00
2018-07-14T01:47:36.570Z,-83.00
2018-07-14T01:48:38.341Z,-81.00
2018-07-14T01:49:39.116Z,-81.00
2018-07-14T01:50:39.891Z,-80.00
2018-07-14T01:51:40.665Z,-82.00
2018-07-14T01:52:41.455Z,-82.00
2018-07-14T01:53:42.229Z,-81.00
2018-07-14T01:54:42.999Z,-80.00
2018-07-14T01:55:43.771Z,-81.00
2018-07-14T01:56:44.550Z,-81.00
2018-07-14T01:57:45.346Z,-82.00
2018-07-14T01:58:46.119Z,-81.00
2018-07-14T01:59:46.897Z,-81.00
2018-07-14T02:00:47.662Z,-81.00
2018-07-14T02:01:48.445Z,-82.00
2018-07-14T02:02:49.240Z,-81.00
2018-07-14T02:03:50.016Z,-81.00
2018-07-14T02:04:50.791Z,-82.00
2018-07-14T02:05:51.570Z,-81.00
2018-07-14T02:06:52.725Z,-81.00
2018-07-14T02:13:42.576Z,-81.00
2018-07-14T02:14:43.352Z,-83.00
2018-07-14T02:15:44.119Z,-81.00
2018-07-14T02:16:44.889Z,-82.00
2018-07-14T02:17:45.660Z,-82.00
2018-07-14T02:18:46.461Z,-82.00
2018-07-14T02:19:47.226Z,-82.00
2018-07-14T02:20:47.999Z,-81.00
2018-07-14T02:21:48.776Z,-81.00
2018-07-14T02:22:49.547Z,-83.00
2018-07-14T02:23:50.344Z,-81.00
2018-07-14T02:24:51.116Z,-81.00
2018-07-14T02:25:51.888Z,-81.00
2018-07-14T02:26:52.660Z,-82.00
2018-07-14T02:27:53.434Z,-81.00
2018-07-14T02:28:54.223Z,-82.00
2018-07-14T02:29:54.994Z,-81.00
2018-07-14T02:30:55.767Z,-82.00
2018-07-14T02:31:56.541Z,-81.00
2018-07-14T02:32:57.311Z,-81.00
2018-07-14T02:33:58.108Z,-81.00
2018-07-14T02:34:58.879Z,-82.00
2018-07-14T02:35:59.652Z,-81.00
2018-07-14T02:37:00.427Z,-82.00
2018-07-14T02:38:00.194Z,-82.00
2018-07-14T02:39:01.996Z,-83.00
2018-07-14T02:40:02.766Z,-81.00
2018-07-14T02:41:03.541Z,-82.00
2018-07-14T02:42:04.318Z,-79.00
2018-07-14T02:43:05.084Z,-81.00
2018-07-14T02:44:05.877Z,-79.00
2018-07-14T02:45:06.650Z,-80.00
2018-07-14T02:46:07.422Z,-81.00
2018-07-14T02:47:08.195Z,-81.00
2018-07-14T02:48:08.965Z,-82.00
2018-07-14T02:49:09.768Z,-82.00
2018-07-14T02:50:10.535Z,-81.00
2018-07-14T02:51:11.311Z,-81.00
2018-07-14T02:52:12.085Z,-82.00
2018-07-14T02:53:12.858Z,-81.00
2018-07-14T02:54:13.657Z,-81.00
2018-07-14T02:55:14.424Z,-81.00
2018-07-14T02:56:15.197Z,-81.00
2018-07-14T02:57:15.970Z,-81.00
2018-07-14T02:58:16.747Z,-82.00
2018-07-14T02:59:17.544Z,-81.00
2018-07-14T03:00:18.318Z,-81.00
2018-07-14T03:01:19.091Z,-81.00
2018-07-14T03:02:19.875Z,-81.00
2018-07-14T03:03:19.645Z,-82.00
2018-07-14T03:04:21.453Z,-82.00
2018-07-14T03:05:22.217Z,-81.00
2018-07-14T03:06:22.988Z,-82.00
2018-07-14T03:07:23.767Z,-82.00
2018-07-14T03:08:24.538Z,-84.00
2018-07-14T03:09:25.332Z,-83.00
2018-07-14T03:10:26.102Z,-80.00
2018-07-14T03:11:26.874Z,-80.00
2018-07-14T03:12:27.654Z,-82.00
2018-07-14T03:13:28.420Z,-82.00
2018-07-14T03:14:29.218Z,-82.00
2018-07-14T03:15:29.988Z,-82.00
2018-07-14T03:16:30.759Z,-83.00
2018-07-14T03:17:31.532Z,-81.00
2018-07-14T03:18:32.307Z,-81.00
2018-07-14T03:19:33.250Z,-81.00
2018-07-14T03:20:32.873Z,-81.00
2018-07-14T03:21:34.650Z,-83.00
2018-07-14T03:22:35.419Z,-82.00
2018-07-14T03:23:36.196Z,-82.00
2018-07-14T03:24:36.998Z,-82.00
2018-07-14T03:25:37.767Z,-82.00
2018-07-14T03:26:38.543Z,-82.00
2018-07-14T03:27:39.313Z,-81.00
2018-07-14T03:28:40.090Z,-81.00
2018-07-14T03:29:40.883Z,-82.00
2018-07-14T03:30:41.664Z,-82.00
2018-07-14T03:31:42.429Z,-81.00
2018-07-14T03:32:43.197Z,-81.00
2018-07-14T03:33:43.966Z,-82.00
2018-07-14T03:34:44.771Z,-83.00
2018-07-14T03:35:45.540Z,-83.00
2018-07-14T03:36:46.442Z,-82.00
2018-07-14T03:37:46.089Z,-81.00
2018-07-14T03:38:47.864Z,-82.00
2018-07-14T03:39:48.661Z,-82.00
2018-07-14T03:40:49.436Z,-83.00
2018-07-14T03:41:50.215Z,-81.00
2018-07-14T03:42:50.983Z,-82.00
2018-07-14T03:43:51.758Z,-82.00
2018-07-14T03:44:52.548Z,-81.00
2018-07-14T03:45:53.322Z,-82.00
2018-07-14T03:46:54.091Z,-82.00
2018-07-14T03:47:54.864Z,-83.00
2018-07-14T03:48:55.636Z,-83.00
2018-07-14T03:49:56.431Z,-81.00
2018-07-14T03:50:57.213Z,-81.00
2018-07-14T03:51:57.978Z,-82.00
2018-07-14T03:52:58.756Z,-81.00
2018-07-14T03:53:59.525Z,-82.00
2018-07-14T03:55:00.317Z,-82.00
2018-07-14T03:56:01.098Z,-81.00
2018-07-14T03:57:01.909Z,-82.00
2018-07-14T03:58:01.639Z,-81.00
2018-07-14T03:59:03.413Z,-82.00
2018-07-14T04:00:04.215Z,-80.00
2018-07-14T04:01:04.989Z,-81.00
2018-07-14T04:02:05.760Z,-82.00
2018-07-14T04:03:06.534Z,-82.00
2018-07-14T04:04:07.311Z,-81.00
2018-07-14T04:05:08.472Z,-83.00
2018-07-14T04:17:27.986Z,-80.00
2018-07-14T04:18:28.759Z,-80.00
2018-07-14T04:19:29.530Z,-81.00
2018-07-14T04:20:30.327Z,-81.00
2018-07-14T04:21:31.097Z,-80.00
2018-07-14T04:22:31.869Z,-83.00
2018-07-14T04:23:32.640Z,-81.00
2018-07-14T04:24:33.415Z,-81.00
2018-07-14T04:25:34.209Z,-82.00
2018-07-14T04:26:34.980Z,-80.00
2018-07-14T04:27:35.751Z,-82.00
2018-07-14T04:28:36.526Z,-82.00
2018-07-14T04:29:37.297Z,-81.00
2018-07-14T04:30:38.088Z,-80.00
2018-07-14T04:31:38.862Z,-81.00
2018-07-14T04:32:39.633Z,-80.00
2018-07-14T04:33:40.410Z,-82.00
2018-07-14T04:34:40.179Z,-81.00
2018-07-14T04:35:41.976Z,-81.00
2018-07-14T04:36:42.745Z,-85.00
2018-07-14T04:37:43.516Z,-81.00
2018-07-14T04:38:44.285Z,-80.00
2018-07-14T04:39:45.060Z,-83.00
2018-07-14T04:40:45.855Z,-80.00
2018-07-14T04:41:46.626Z,-84.00
2018-07-14T04:42:47.396Z,-81.00
2018-07-14T04:43:48.168Z,-81.00
2018-07-14T04:44:48.941Z,-82.00
2018-07-14T04:45:49.745Z,-82.00
2018-07-14T04:46:50.512Z,-82.00
2018-07-14T04:47:51.288Z,-81.00
2018-07-14T04:48:52.056Z,-81.00
2018-07-14T04:49:52.835Z,-82.00
2018-07-14T04:50:53.624Z,-81.00
2018-07-14T04:51:54.398Z,-82.00
2018-07-14T04:52:55.169Z,-82.00
2018-07-14T04:53:55.941Z,-81.00
2018-07-14T04:54:56.713Z,-81.00
2018-07-14T04:55:57.508Z,-82.00
2018-07-14T04:56:58.279Z,-82.00
2018-07-14T04:57:59.050Z,-82.00
2018-07-14T04:58:59.826Z,-82.00
2018-07-14T05:00:00.596Z,-82.00
2018-07-14T05:01:01.387Z,-82.00
2018-07-14T05:02:02.162Z,-81.00
2018-07-14T05:03:02.937Z,-82.00
2018-07-14T05:04:03.706Z,-83.00
2018-07-14T05:05:04.481Z,-82.00
2018-07-14T05:06:05.275Z,-81.00
2018-07-14T05:07:06.052Z,-82.00
2018-07-14T05:08:06.821Z,-82.00
2018-07-14T05:09:07.595Z,-83.00
2018-07-14T05:10:08.367Z,-82.00
2018-07-14T05:11:09.163Z,-81.00
2018-07-14T05:12:09.934Z,-81.00
2018-07-14T05:13:10.704Z,-79.00
2018-07-14T05:14:11.484Z,-81.00
2018-07-14T05:15:12.251Z,-80.00
2018-07-14T05:16:13.052Z,-81.00
2018-07-14T05:17:13.822Z,-83.00
2018-07-14T05:18:14.593Z,-81.00
2018-07-14T05:19:15.367Z,-81.00
2018-07-14T05:20:16.141Z,-80.00
2018-07-14T05:21:16.981Z,-83.00
2018-07-14T05:22:16.707Z,-81.00
2018-07-14T05:23:18.484Z,-81.00
2018-07-14T05:24:19.258Z,-81.00
2018-07-14T05:25:20.068Z,-84.00
2018-07-14T05:26:19.827Z,-82.00
2018-07-14T05:27:21.602Z,-83.00
2018-07-14T05:28:21.373Z,-80.00
2018-07-14T05:29:23.143Z,-81.00
2018-07-14T05:30:23.922Z,-81.00
2018-07-14T05:31:24.717Z,-81.00
2018-07-14T05:32:25.491Z,-82.00
2018-07-14T05:33:26.265Z,-83.00
2018-07-14T05:34:27.043Z,-80.00
2018-07-14T05:35:27.812Z,-82.00
2018-07-14T05:36:28.614Z,-82.00
2018-07-14T05:37:29.382Z,-81.00
2018-07-14T05:38:30.154Z,-82.00
2018-07-14T05:39:30.928Z,-81.00
2018-07-14T05:40:31.705Z,-82.00
2018-07-14T05:41:32.495Z,-81.00
2018-07-14T05:42:33.266Z,-82.00
2018-07-14T05:43:34.038Z,-82.00
2018-07-14T05:44:34.820Z,-81.00
2018-07-14T05:45:35.588Z,-82.00
2018-07-14T05:46:36.391Z,-82.00
2018-07-14T05:47:37.155Z,-83.00
2018-07-14T05:48:37.933Z,-81.00
2018-07-14T05:49:38.701Z,-81.00
2018-07-14T05:50:39.477Z,-84.00
2018-07-14T05:51:40.276Z,-83.00
2018-07-14T05:52:41.054Z,-82.00
2018-07-14T05:53:41.821Z,-83.00
2018-07-14T05:54:42.594Z,-81.00
2018-07-14T05:55:43.366Z,-81.00
2018-07-14T05:56:44.170Z,-81.00
2018-07-14T05:57:44.939Z,-82.00
2018-07-14T05:58:45.715Z,-81.00
2018-07-14T05:59:46.490Z,-81.00
2018-07-14T06:00:47.261Z,-82.00
2018-07-14T06:01:48.052Z,-81.00
2018-07-14T06:02:48.828Z,-82.00
2018-07-14T06:03:49.600Z,-81.00
2018-07-14T06:04:50.378Z,-81.00
2018-07-14T06:05:51.148Z,-81.00
2018-07-14T06:06:51.943Z,-84.00
2018-07-14T06:07:53.098Z,-81.00
2018-07-14T06:08:53.275Z,-82.00
2018-07-14T06:13:47.084Z,-81.00
2018-07-14T06:14:48.855Z,-80.00
2018-07-14T06:15:49.627Z,-80.00
2018-07-14T06:16:50.396Z,-80.00
2018-07-14T06:17:51.167Z,-81.00
2018-07-14T06:18:51.962Z,-81.00
2018-07-14T06:19:52.733Z,-83.00
2018-07-14T06:20:53.505Z,-83.00
2018-07-14T06:21:54.280Z,-81.00
2018-07-14T06:22:55.054Z,-81.00
2018-07-14T06:23:55.850Z,-81.00
2018-07-14T06:24:56.629Z,-81.00
2018-07-14T06:25:57.395Z,-81.00
2018-07-14T06:26:58.167Z,-81.00
2018-07-14T06:27:58.939Z,-80.00
2018-07-14T06:28:59.733Z,-81.00
2018-07-14T06:30:00.506Z,-80.00
2018-07-14T06:31:01.283Z,-81.00
2018-07-14T06:32:02.144Z,-80.00
2018-07-14T06:33:01.828Z,-81.00
2018-07-14T06:34:03.632Z,-81.00
2018-07-14T06:35:04.397Z,-81.00
2018-07-14T06:36:05.204Z,-81.00
2018-07-14T06:37:05.947Z,-84.00
2018-07-14T06:38:06.729Z,-80.00
2018-07-14T06:39:07.515Z,-81.00
2018-07-14T06:40:08.291Z,-83.00
2018-07-14T06:41:09.060Z,-81.00
2018-07-14T06:42:09.831Z,-80.00
2018-07-14T06:43:10.610Z,-80.00
2018-07-14T06:44:11.408Z,-80.00
2018-07-14T06:45:12.178Z,-82.00
2018-07-14T06:46:12.950Z,-82.00
2018-07-14T06:47:13.721Z,-80.00
2018-07-14T06:48:14.497Z,-82.00
2018-07-14T06:49:15.290Z,-81.00
2018-07-14T06:50:16.067Z,-81.00
2018-07-14T06:51:16.836Z,-81.00
2018-07-14T06:52:17.608Z,-81.00
2018-07-14T06:53:18.385Z,-81.00
2018-07-14T06:54:19.218Z,-81.00
2018-07-14T06:55:18.952Z,-81.00
2018-07-14T06:56:20.724Z,-82.00
2018-07-14T06:57:21.499Z,-80.00
2018-07-14T06:58:22.273Z,-82.00
2018-07-14T06:59:23.069Z,-82.00
2018-07-14T07:00:23.838Z,-81.00
2018-07-14T07:01:24.610Z,-81.00
2018-07-14T07:02:25.384Z,-81.00
2018-07-14T07:03:26.229Z,-81.00
2018-07-14T07:04:25.957Z,-82.00
2018-07-14T07:05:27.724Z,-82.00
2018-07-14T07:06:28.496Z,-81.00
2018-07-14T07:07:29.270Z,-80.00
2018-07-14T07:08:30.044Z,-81.00
2018-07-14T07:09:30.847Z,-81.00
2018-07-14T07:10:31.612Z,-81.00
2018-07-14T07:11:32.386Z,-81.00
2018-07-14T07:12:33.158Z,-81.00
2018-07-14T07:13:33.939Z,-82.00
2018-07-14T07:14:34.727Z,-81.00
2018-07-14T07:15:35.502Z,-81.00
2018-07-14T07:16:36.284Z,-81.00
2018-07-14T07:17:37.058Z,-82.00
2018-07-14T07:18:37.832Z,-84.00
2018-07-14T07:19:38.631Z,-82.00
2018-07-14T07:20:39.400Z,-82.00
2018-07-14T07:21:40.170Z,-83.00
2018-07-14T07:22:40.942Z,-81.00
2018-07-14T07:23:41.714Z,-82.00
2018-07-14T07:24:42.508Z,-81.00
2018-07-14T07:25:43.283Z,-80.00
2018-07-14T07:26:44.055Z,-81.00
2018-07-14T07:27:44.828Z,-80.00
2018-07-14T07:28:45.653Z,-80.00
2018-07-14T07:29:45.405Z,-80.00
2018-07-14T07:30:47.177Z,-81.00
2018-07-14T07:31:47.951Z,-81.00
2018-07-14T07:32:48.725Z,-81.00
2018-07-14T07:33:49.501Z,-80.00
2018-07-14T07:34:49.296Z,-84.00
2018-07-14T07:35:51.072Z,-82.00
2018-07-14T07:36:51.840Z,-81.00
2018-07-14T07:37:52.618Z,-81.00
2018-07-14T07:38:53.473Z,-83.00
2018-07-14T07:39:53.577Z,-81.00
2018-07-14T07:40:53.270Z,-82.00
2018-07-14T07:41:55.047Z,-81.00
2018-07-14T07:42:55.814Z,-82.00
2018-07-14T07:43:56.593Z,-81.00
2018-07-14T07:44:57.385Z,-81.00
2018-07-14T07:45:58.157Z,-82.00
2018-07-14T07:46:58.934Z,-81.00
2018-07-14T07:47:59.700Z,-82.00
2018-07-14T07:49:00.510Z,-82.00
2018-07-14T07:50:01.294Z,-82.00
2018-07-14T07:51:02.071Z,-82.00
2018-07-14T07:52:02.876Z,-83.00
2018-07-14T07:53:03.616Z,-82.00
2018-07-14T07:54:04.387Z,-82.00
2018-07-14T07:55:05.183Z,-82.00
2018-07-14T07:56:05.955Z,-83.00
2018-07-14T07:57:06.728Z,-84.00
2018-07-14T07:58:07.508Z,-82.00
2018-07-14T07:59:08.404Z,-81.00
2018-07-14T08:00:08.074Z,-82.00
2018-07-14T08:01:09.844Z,-83.00
2018-07-14T08:02:10.619Z,-83.00
2018-07-14T08:03:11.389Z,-82.00
2018-07-14T08:04:12.167Z,-81.00
2018-07-14T08:05:12.966Z,-82.00
2018-07-14T08:06:13.746Z,-81.00
2018-07-14T08:07:14.613Z,-81.00
2018-07-14T08:08:14.684Z,-83.00
2018-07-14T08:09:15.867Z,-83.00
2018-07-14T08:10:15.087Z,-83.00
2018-07-14T08:11:15.276Z,-84.00
2018-07-14T08:13:31.667Z,-84.00
2018-07-14T08:14:32.442Z,-84.00
2018-07-14T08:15:33.238Z,-83.00
2018-07-14T08:16:34.005Z,-84.00
2018-07-14T08:17:34.778Z,-84.00
2018-07-14T08:18:35.548Z,-82.00
2018-07-14T08:19:36.320Z,-83.00
2018-07-14T08:20:37.113Z,-82.00
2018-07-14T08:21:37.885Z,-82.00
2018-07-14T08:22:38.679Z,-82.00
2018-07-14T08:23:39.431Z,-82.00
2018-07-14T08:24:40.208Z,-82.00
2018-07-14T08:25:41.005Z,-82.00
2018-07-14T08:26:41.769Z,-82.00
2018-07-14T08:27:42.542Z,-83.00
2018-07-14T08:28:43.312Z,-83.00
2018-07-14T08:29:44.083Z,-82.00
2018-07-14T08:30:44.881Z,-82.00
2018-07-14T08:31:45.654Z,-83.00
2018-07-14T08:32:46.427Z,-83.00
2018-07-14T08:33:47.198Z,-82.00
2018-07-14T08:34:47.973Z,-82.00
2018-07-14T08:35:48.775Z,-83.00
2018-07-14T08:36:49.546Z,-83.00
2018-07-14T08:37:50.323Z,-82.00
2018-07-14T08:38:51.091Z,-82.00
2018-07-14T08:39:51.863Z,-82.00
2018-07-14T08:40:52.659Z,-83.00
2018-07-14T08:41:53.429Z,-84.00
2018-07-14T08:42:54.205Z,-83.00
2018-07-14T08:43:54.973Z,-83.00
2018-07-14T08:44:55.755Z,-83.00
2018-07-14T08:45:56.549Z,-84.00
2018-07-14T08:46:57.320Z,-83.00
2018-07-14T08:47:58.094Z,-83.00
2018-07-14T08:48:58.863Z,-83.00
2018-07-14T08:49:59.673Z,-83.00
2018-07-14T08:51:00.450Z,-83.00
2018-07-14T08:52:00.223Z,-82.00
2018-07-14T08:53:01.994Z,-83.00
2018-07-14T08:54:02.765Z,-83.00
2018-07-14T08:55:03.541Z,-83.00
2018-07-14T08:56:04.334Z,-83.00
2018-07-14T08:57:05.105Z,-83.00
2018-07-14T08:58:05.891Z,-83.00
2018-07-14T08:59:06.650Z,-83.00
2018-07-14T09:00:07.434Z,-84.00
2018-07-14T09:01:08.338Z,-83.00
2018-07-14T09:02:09.104Z,-84.00
2018-07-14T09:03:09.872Z,-84.00
2018-07-14T09:04:10.643Z,-84.00
2018-07-14T09:05:11.417Z,-83.00
2018-07-14T09:06:12.209Z,-84.00
2018-07-14T09:07:12.986Z,-83.00
2018-07-14T09:08:13.757Z,-82.00
2018-07-14T09:09:14.542Z,-83.00
2018-07-14T09:10:15.307Z,-82.00
2018-07-14T09:11:16.108Z,-82.00
2018-07-14T09:12:16.879Z,-82.00
2018-07-14T09:13:17.658Z,-82.00
2018-07-14T09:14:18.422Z,-82.00
2018-07-14T09:15:19.199Z,-83.00
2018-07-14T09:16:20.043Z,-83.00
2018-07-14T09:17:19.768Z,-82.00
2018-07-14T09:18:21.542Z,-81.00
2018-07-14T09:19:22.314Z,-81.00
2018-07-14T09:20:23.088Z,-82.00
2018-07-14T09:21:23.882Z,-81.00
2018-07-14T09:22:24.655Z,-81.00
2018-07-14T09:23:25.429Z,-81.00
2018-07-14T09:24:26.199Z,-82.00
2018-07-14T09:25:26.985Z,-81.00
2018-07-14T09:26:27.773Z,-82.00
2018-07-14T09:27:28.548Z,-82.00
2018-07-14T09:28:29.316Z,-80.00
2018-07-14T09:29:30.087Z,-81.00
2018-07-14T09:30:30.902Z,-81.00
2018-07-14T09:31:30.659Z,-80.00
2018-07-14T09:32:32.448Z,-81.00
2018-07-14T09:33:33.271Z,-82.00
2018-07-14T09:34:32.973Z,-82.00
2018-07-14T09:35:34.745Z,-82.00
2018-07-14T09:36:35.551Z,-81.00
2018-07-14T09:37:36.319Z,-81.00
2018-07-14T09:38:37.087Z,-81.00
2018-07-14T09:39:37.866Z,-81.00
2018-07-14T09:40:38.634Z,-81.00
2018-07-14T09:41:39.434Z,-81.00
2018-07-14T09:42:40.209Z,-81.00
2018-07-14T09:43:40.978Z,-82.00
2018-07-14T09:44:41.821Z,-82.00
2018-07-14T09:45:41.522Z,-83.00
2018-07-14T09:46:43.320Z,-82.00
2018-07-14T09:47:44.157Z,-82.00
2018-07-14T09:48:43.871Z,-83.00
2018-07-14T09:49:45.636Z,-82.00
2018-07-14T09:50:46.415Z,-83.00
2018-07-14T09:51:47.208Z,-83.00
2018-07-14T09:52:47.983Z,-84.00
2018-07-14T09:53:48.756Z,-82.00
2018-07-14T09:54:49.528Z,-83.00
2018-07-14T09:55:50.309Z,-83.00
2018-07-14T09:56:51.101Z,-83.00
2018-07-14T09:57:51.877Z,-82.00
2018-07-14T09:58:52.648Z,-82.00
2018-07-14T09:59:53.421Z,-83.00
2018-07-14T10:00:54.196Z,-83.00
2018-07-14T10:01:54.994Z,-84.00
2018-07-14T10:02:55.765Z,-83.00
2018-07-14T10:03:56.538Z,-82.00
2018-07-14T10:04:57.308Z,-82.00
2018-07-14T10:05:58.452Z,-82.00
2018-07-14T10:16:50.977Z,-82.00
2018-07-14T10:17:51.774Z,-81.00
2018-07-14T10:18:52.545Z,-82.00
2018-07-14T10:19:53.314Z,-81.00
2018-07-14T10:20:54.088Z,-82.00
2018-07-14T10:21:54.860Z,-82.00
2018-07-14T10:22:55.649Z,-82.00
2018-07-14T10:23:56.424Z,-82.00
2018-07-14T10:24:57.214Z,-81.00
2018-07-14T10:25:58.067Z,-84.00
2018-07-14T10:26:57.746Z,-84.00
2018-07-14T10:27:59.544Z,-84.00
2018-07-14T10:29:00.371Z,-84.00
2018-07-14T10:30:00.100Z,-84.00
2018-07-14T10:31:01.858Z,-84.00
2018-07-14T10:32:02.627Z,-84.00
2018-07-14T10:33:03.425Z,-83.00
2018-07-14T10:34:04.299Z,-84.00
2018-07-14T10:35:03.968Z,-84.00
2018-07-14T10:36:05.741Z,-84.00
2018-07-14T10:37:06.513Z,-84.00
2018-07-14T10:38:07.319Z,-85.00
2018-07-14T10:39:08.087Z,-85.00
2018-07-14T10:40:08.863Z,-85.00
2018-07-14T10:41:09.633Z,-85.00
2018-07-14T10:42:10.494Z,-83.00
2018-07-14T10:43:10.205Z,-85.00
2018-07-14T10:44:11.986Z,-84.00
2018-07-14T10:45:12.751Z,-84.00
2018-07-14T10:46:13.524Z,-84.00
2018-07-14T10:47:14.296Z,-84.00
2018-07-14T10:48:15.095Z,-84.00
2018-07-14T10:49:15.866Z,-83.00
2018-07-14T10:50:16.641Z,-84.00
2018-07-14T10:51:17.410Z,-83.00
2018-07-14T10:52:18.189Z,-83.00
2018-07-14T10:53:18.991Z,-84.00
2018-07-14T10:54:19.766Z,-84.00
2018-07-14T10:55:20.537Z,-85.00
2018-07-14T10:56:21.307Z,-85.00
2018-07-14T10:57:22.082Z,-85.00
2018-07-14T10:58:22.879Z,-85.00
2018-07-14T10:59:23.649Z,-85.00
2018-07-14T11:00:24.422Z,-85.00
2018-07-14T11:01:25.194Z,-85.00
2018-07-14T11:02:25.969Z,-85.00
2018-07-14T11:03:26.765Z,-85.00
2018-07-14T11:04:27.547Z,-85.00
2018-07-14T11:05:27.309Z,-85.00
2018-07-14T11:06:29.081Z,-85.00
2018-07-14T11:07:29.856Z,-84.00
2018-07-14T11:08:30.653Z,-84.00
2018-07-14T11:09:31.427Z,-84.00
2018-07-14T11:10:31.197Z,-85.00
2018-07-14T11:11:32.975Z,-84.00
2018-07-14T11:12:33.742Z,-85.00
2018-07-14T11:13:34.547Z,-85.00
2018-07-14T11:14:35.316Z,-85.00
2018-07-14T11:15:36.091Z,-85.00
2018-07-14T11:16:36.859Z,-85.00
2018-07-14T11:17:37.636Z,-85.00
2018-07-14T11:18:38.433Z,-84.00
2018-07-14T11:19:39.201Z,-83.00
2018-07-14T11:20:39.973Z,-83.00
2018-07-14T11:21:40.751Z,-83.00
2018-07-14T11:22:41.533Z,-86.00
2018-07-14T11:23:42.386Z,-84.00
2018-07-14T11:24:42.103Z,-84.00
2018-07-14T11:25:43.874Z,-84.00
2018-07-14T11:26:44.815Z,-84.00
2018-07-14T11:27:44.511Z,-84.00
2018-07-14T11:28:46.387Z,-84.00
2018-07-14T11:29:46.140Z,-84.00
2018-07-14T11:30:47.916Z,-85.00
2018-07-14T11:31:48.686Z,-84.00
2018-07-14T11:32:49.459Z,-84.00
2018-07-14T11:33:50.340Z,-84.00
2018-07-14T11:34:50.090Z,-84.00
2018-07-14T11:35:51.859Z,-84.00
2018-07-14T11:36:52.632Z,-85.00
2018-07-14T11:37:53.409Z,-84.00
2018-07-14T11:38:54.216Z,-84.00
2018-07-14T11:39:54.991Z,-83.00
2018-07-14T11:40:55.766Z,-84.00
2018-07-14T11:41:56.538Z,-84.00
2018-07-14T11:42:57.325Z,-84.00
2018-07-14T11:43:58.200Z,-84.00
2018-07-14T11:44:58.958Z,-83.00
2018-07-14T11:45:59.729Z,-84.00
2018-07-14T11:47:00.581Z,-84.00
2018-07-14T11:48:00.408Z,-83.00
2018-07-14T11:49:01.113Z,-83.00
2018-07-14T11:50:02.883Z,-84.00
2018-07-14T11:51:03.658Z,-84.00
2018-07-14T11:52:04.432Z,-84.00
2018-07-14T11:53:05.204Z,-84.00
2018-07-14T11:54:06.037Z,-84.00
2018-07-14T11:55:05.772Z,-84.00
2018-07-14T11:56:07.547Z,-84.00
2018-07-14T11:57:08.320Z,-84.00
2018-07-14T11:58:09.097Z,-84.00
2018-07-14T11:59:09.903Z,-84.00
2018-07-14T12:00:10.670Z,-84.00
2018-07-14T12:01:11.438Z,-83.00
2018-07-14T12:02:12.212Z,-84.00
2018-07-14T12:03:12.984Z,-85.00
2018-07-14T12:04:13.782Z,-84.00
2018-07-14T12:05:14.555Z,-86.00
2018-07-14T12:06:15.338Z,-85.00
2018-07-14T12:07:16.171Z,-85.00
2018-07-14T12:08:15.876Z,-85.00
2018-07-14T12:09:17.670Z,-85.00
2018-07-14T12:10:18.448Z,-84.00
2018-07-14T12:11:19.219Z,-84.00
2018-07-14T12:12:19.991Z,-85.00
2018-07-14T12:13:20.794Z,-85.00
2018-07-14T12:14:21.560Z,-84.00
2018-07-14T12:15:22.333Z,-84.00
2018-07-14T12:16:23.468Z,-85.00
2018-07-14T12:23:16.409Z,-82.00
2018-07-14T12:24:17.178Z,-84.00
2018-07-14T12:25:17.972Z,-85.00
2018-07-14T12:26:18.743Z,-83.00
2018-07-14T12:27:19.518Z,-83.00
2018-07-14T12:28:20.285Z,-82.00
2018-07-14T12:29:21.055Z,-85.00
2018-07-14T12:30:22.067Z,-84.00
2018-07-14T12:31:21.625Z,-84.00
2018-07-14T12:32:23.400Z,-84.00
2018-07-14T12:33:24.170Z,-84.00
2018-07-14T12:34:24.961Z,-84.00
2018-07-14T12:35:24.739Z,-83.00
2018-07-14T12:36:26.510Z,-83.00
2018-07-14T12:37:27.282Z,-83.00
2018-07-14T12:38:28.054Z,-84.00
2018-07-14T12:39:28.824Z,-84.00
2018-07-14T12:40:29.624Z,-84.00
2018-07-14T12:41:30.392Z,-84.00
2018-07-14T12:42:31.163Z,-83.00
2018-07-14T12:43:31.938Z,-85.00
2018-07-14T12:44:32.708Z,-84.00
2018-07-14T12:45:33.508Z,-84.00
2018-07-14T12:46:34.283Z,-84.00
2018-07-14T12:47:35.054Z,-84.00
2018-07-14T12:48:35.826Z,-83.00
2018-07-14T12:49:36.593Z,-83.00
2018-07-14T12:50:37.389Z,-85.00
2018-07-14T12:51:38.164Z,-84.00
2018-07-14T12:52:38.934Z,-83.00
2018-07-14T12:53:39.767Z,-83.00
2018-07-14T12:54:39.483Z,-83.00
2018-07-14T12:55:41.277Z,-83.00
2018-07-14T12:56:42.048Z,-83.00
2018-07-14T12:57:42.823Z,-84.00
2018-07-14T12:58:43.597Z,-83.00
2018-07-14T12:59:44.366Z,-83.00
2018-07-14T13:00:45.163Z,-83.00
2018-07-14T13:01:45.932Z,-82.00
2018-07-14T13:02:46.707Z,-82.00
2018-07-14T13:03:47.479Z,-83.00
2018-07-14T13:04:48.256Z,-83.00
2018-07-14T13:05:49.046Z,-82.00
2018-07-14T13:06:49.817Z,-81.00
2018-07-14T13:07:50.599Z,-80.00
2018-07-14T13:08:51.366Z,-80.00
2018-07-14T13:09:52.138Z,-81.00
2018-07-14T13:10:52.937Z,-82.00
2018-07-14T13:11:53.713Z,-81.00
2018-07-14T13:12:54.481Z,-83.00
2018-07-14T13:13:55.256Z,-83.00
2018-07-14T13:14:56.028Z,-82.00
2018-07-14T13:15:56.828Z,-82.00
2018-07-14T13:16:57.600Z,-83.00
2018-07-14T13:17:58.369Z,-82.00
2018-07-14T13:18:59.145Z,-83.00
2018-07-14T13:19:59.918Z,-83.00